Terminal Aerodrome Forecast
Issued by NWS Pocatello, ID

Home | Current Version | Previous Version | Text Only | Print | Product List | Glossary On
Versions: 1 2 3 4 5 6 7 8 9 10 11 12 13 14 15
000
FTUS45 KPIH 041120
TAFPIH
TAF
KPIH 041120Z 0412/0512 VRB04KT P6SM FEW025 SCT080
     FM041500 24015KT P6SM FEW025 SCT080
     FM050000 24015KT P6SM VCTS SCT100CB BKN140 BKN180
     FM050600 10007KT P6SM VCSH SCT090 BKN110 OVC160=

USA.gov is the U.S. government's official web portal to all federal, state and local government web resources and services.